sensor_id;sensor_type;location;lat;lon;timestamp;pressure;altitude;pressure_sealevel;temperature;humidity
22283;BME280;11310;51.528;21.204;2022-10-16T00:01:44;100154.16;;;12.94;100.00
22283;BME280;11310;51.528;21.204;2022-10-16T00:04:13;100154.06;;;12.96;100.00
22283;BME280;11310;51.528;21.204;2022-10-16T00:06:41;100157.53;;;12.96;100.00
22283;BME280;11310;51.528;21.204;2022-10-16T00:09:10;100155.81;;;12.97;100.00
22283;BME280;11310;51.528;21.204;2022-10-16T00:11:39;100156.66;;;12.97;100.00
22283;BME280;11310;51.528;21.204;2022-10-16T00:14:11;100162.75;;;12.98;100.00
22283;BME280;11310;51.528;21.204;2022-10-16T00:16:40;100158.19;;;13.01;100.00
22283;BME280;11310;51.528;21.204;2022-10-16T00:19:11;100159.91;;;13.02;100.00
22283;BME280;11310;51.528;21.204;2022-10-16T00:21:40;100162.34;;;13.05;100.00
22283;BME280;11310;51.528;21.204;2022-10-16T00:24:09;100165.09;;;13.04;100.00
22283;BME280;11310;51.528;21.204;2022-10-16T00:26:39;100164.91;;;13.07;100.00
22283;BME280;11310;51.528;21.204;2022-10-16T00:29:08;100162.94;;;13.10;100.00
22283;BME280;11310;51.528;21.204;2022-10-16T00:31:37;100168.06;;;13.13;100.00
22283;BME280;11310;51.528;21.204;2022-10-16T00:34:05;100168.84;;;13.15;100.00
22283;BME280;11310;51.528;21.204;2022-10-16T00:36:35;100170.47;;;13.18;100.00
22283;BME280;11310;51.528;21.204;2022-10-16T00:39:03;100167.84;;;13.18;100.00
22283;BME280;11310;51.528;21.204;2022-10-16T00:41:33;100164.25;;;13.19;100.00
22283;BME280;11310;51.528;21.204;2022-10-16T00:44:03;100165.00;;;13.21;100.00
22283;BME280;11310;51.528;21.204;2022-10-16T00:46:35;100165.88;;;13.21;100.00
22283;BME280;11310;51.528;21.204;2022-10-16T00:49:07;100165.88;;;13.21;100.00
22283;BME280;11310;51.528;21.204;2022-10-16T00:51:40;100157.19;;;13.19;100.00
22283;BME280;11310;51.528;21.204;2022-10-16T00:54:13;100160.59;;;13.21;100.00
22283;BME280;11310;51.528;21.204;2022-10-16T00:56:43;100164.00;;;13.23;100.00
22283;BME280;11310;51.528;21.204;2022-10-16T00:59:16;100164.69;;;13.27;100.00
22283;BME280;11310;51.528;21.204;2022-10-16T01:01:45;100167.06;;;13.31;100.00
22283;BME280;11310;51.528;21.204;2022-10-16T01:04:13;100169.63;;;13.33;100.00
22283;BME280;11310;51.528;21.204;2022-10-16T01:06:49;100172.00;;;13.37;100.00
22283;BME280;11310;51.528;21.204;2022-10-16T01:09:23;100168.44;;;13.38;100.00
22283;BME280;11310;51.528;21.204;2022-10-16T01:12:03;100170.13;;;13.39;100.00
22283;BME280;11310;51.528;21.204;2022-10-16T01:14:39;100181.44;;;13.41;100.00
22283;BME280;11310;51.528;21.204;2022-10-16T01:17:12;100180.69;;;13.39;100.00
22283;BME280;11310;51.528;21.204;2022-10-16T01:20:00;100171.84;;;13.40;100.00
22283;BME280;11310;51.528;21.204;2022-10-16T01:22:38;100166.56;;;13.40;100.00
22283;BME280;11310;51.528;21.204;2022-10-16T01:25:12;100167.31;;;13.42;100.00
22283;BME280;11310;51.528;21.204;2022-10-16T01:27:47;100163.56;;;13.46;100.00
22283;BME280;11310;51.528;21.204;2022-10-16T01:30:19;100169.63;;;13.48;100.00
22283;BME280;11310;51.528;21.204;2022-10-16T01:32:52;100160.78;;;13.49;100.00
22283;BME280;11310;51.528;21.204;2022-10-16T01:35:26;100161.66;;;13.50;100.00
22283;BME280;11310;51.528;21.204;2022-10-16T01:38:00;100166.81;;;13.51;100.00
22283;BME280;11310;51.528;21.204;2022-10-16T01:40:33;100158.81;;;13.53;100.00
22283;BME280;11310;51.528;21.204;2022-10-16T01:43:06;100157.03;;;13.53;100.00
22283;BME280;11310;51.528;21.204;2022-10-16T01:45:36;100171.06;;;13.54;100.00
22283;BME280;11310;51.528;21.204;2022-10-16T01:48:05;100179.75;;;13.56;100.00
22283;BME280;11310;51.528;21.204;2022-10-16T01:50:39;100187.66;;;13.56;100.00
22283;BME280;11310;51.528;21.204;2022-10-16T01:53:11;100179.81;;;13.54;100.00
22283;BME280;11310;51.528;21.204;2022-10-16T01:55:44;100187.72;;;13.54;100.00
22283;BME280;11310;51.528;21.204;2022-10-16T01:58:16;100181.72;;;13.52;100.00
22283;BME280;11310;51.528;21.204;2022-10-16T02:00:45;100185.25;;;13.51;100.00
22283;BME280;11310;51.528;21.204;2022-10-16T02:03:18;100184.44;;;13.51;100.00
22283;BME280;11310;51.528;21.204;2022-10-16T02:05:51;100188.00;;;13.50;100.00
22283;BME280;11310;51.528;21.204;2022-10-16T02:08:23;100184.44;;;13.51;100.00
22283;BME280;11310;51.528;21.204;2022-10-16T02:10:52;100190.53;;;13.51;100.00
22283;BME280;11310;51.528;21.204;2022-10-16T02:13:26;100188.75;;;13.52;100.00
22283;BME280;11310;51.528;21.204;2022-10-16T02:15:58;100187.88;;;13.51;100.00
22283;BME280;11310;51.528;21.204;2022-10-16T02:18:27;100182.88;;;13.47;100.00
22283;BME280;11310;51.528;21.204;2022-10-16T02:20:59;100187.13;;;13.49;100.00
22283;BME280;11310;51.528;21.204;2022-10-16T02:23:35;100200.41;;;13.48;100.00
22283;BME280;11310;51.528;21.204;2022-10-16T02:26:09;100189.03;;;13.47;100.00
22283;BME280;11310;51.528;21.204;2022-10-16T02:28:45;100191.66;;;13.47;100.00
22283;BME280;11310;51.528;21.204;2022-10-16T02:31:18;100189.84;;;13.48;100.00
22283;BME280;11310;51.528;21.204;2022-10-16T02:33:52;100181.88;;;13.49;100.00
22283;BME280;11310;51.528;21.204;2022-10-16T02:36:23;100184.50;;;13.49;100.00
22283;BME280;11310;51.528;21.204;2022-10-16T02:38:52;100182.72;;;13.50;100.00
22283;BME280;11310;51.528;21.204;2022-10-16T02:41:23;100182.81;;;13.48;100.00
22283;BME280;11310;51.528;21.204;2022-10-16T02:43:53;100186.47;;;13.46;100.00
22283;BME280;11310;51.528;21.204;2022-10-16T02:46:23;100181.19;;;13.46;100.00
22283;BME280;11310;51.528;21.204;2022-10-16T02:48:51;100189.84;;;13.48;100.00
22283;BME280;11310;51.528;21.204;2022-10-16T02:51:19;100185.53;;;13.47;100.00
22283;BME280;11310;51.528;21.204;2022-10-16T02:53:50;100195.13;;;13.48;100.00
22283;BME280;11310;51.528;21.204;2022-10-16T02:56:19;100195.19;;;13.46;100.00
22283;BME280;11310;51.528;21.204;2022-10-16T02:58:48;100194.44;;;13.44;100.00
22283;BME280;11310;51.528;21.204;2022-10-16T03:01:17;100193.44;;;13.47;100.00
22283;BME280;11310;51.528;21.204;2022-10-16T03:03:46;100209.31;;;13.45;100.00
22283;BME280;11310;51.528;21.204;2022-10-16T03:06:15;100196.31;;;13.42;100.00
22283;BME280;11310;51.528;21.204;2022-10-16T03:08:43;100204.13;;;13.44;100.00
22283;BME280;11310;51.528;21.204;2022-10-16T03:11:12;100201.41;;;13.45;100.00
22283;BME280;11310;51.528;21.204;2022-10-16T03:13:40;100209.41;;;13.44;100.00
22283;BME280;11310;51.528;21.204;2022-10-16T03:16:09;100206.84;;;13.42;100.00
22283;BME280;11310;51.528;21.204;2022-10-16T03:18:39;100215.69;;;13.41;100.00
22283;BME280;11310;51.528;21.204;2022-10-16T03:21:07;100216.56;;;13.42;100.00
22283;BME280;11310;51.528;21.204;2022-10-16T03:23:36;100218.41;;;13.40;100.00
22283;BME280;11310;51.528;21.204;2022-10-16T03:26:05;100223.69;;;13.40;100.00
22283;BME280;11310;51.528;21.204;2022-10-16T03:28:33;100227.25;;;13.39;100.00
22283;BME280;11310;51.528;21.204;2022-10-16T03:31:01;100228.13;;;13.39;100.00
22283;BME280;11310;51.528;21.204;2022-10-16T03:33:30;100228.13;;;13.39;100.00
22283;BME280;11310;51.528;21.204;2022-10-16T03:36:00;100235.16;;;13.39;100.00
22283;BME280;11310;51.528;21.204;2022-10-16T03:38:28;100229.97;;;13.37;100.00
22283;BME280;11310;51.528;21.204;2022-10-16T03:40:57;100236.97;;;13.38;100.00
22283;BME280;11310;51.528;21.204;2022-10-16T03:43:25;100238.81;;;13.36;100.00
22283;BME280;11310;51.528;21.204;2022-10-16T03:45:54;100233.53;;;13.36;100.00
22283;BME280;11310;51.528;21.204;2022-10-16T03:48:23;100247.72;;;13.34;100.00
22283;BME280;11310;51.528;21.204;2022-10-16T03:50:51;100238.97;;;13.33;100.00
22283;BME280;11310;51.528;21.204;2022-10-16T03:53:22;100242.63;;;13.31;100.00
22283;BME280;11310;51.528;21.204;2022-10-16T03:55:50;100232.34;;;13.26;100.00
22283;BME280;11310;51.528;21.204;2022-10-16T03:58:19;100243.03;;;13.23;100.00
22283;BME280;11310;51.528;21.204;2022-10-16T04:00:48;100237.16;;;13.18;100.00
22283;BME280;11310;51.528;21.204;2022-10-16T04:03:17;100248.03;;;13.12;100.00
22283;BME280;11310;51.528;21.204;2022-10-16T04:05:46;100250.81;;;13.09;100.00
22283;BME280;11310;51.528;21.204;2022-10-16T04:08:14;100247.56;;;13.04;100.00
22283;BME280;11310;51.528;21.204;2022-10-16T04:10:45;100252.09;;;13.02;100.00
22283;BME280;11310;51.528;21.204;2022-10-16T04:13:14;100249.59;;;12.99;100.00
22283;BME280;11310;51.528;21.204;2022-10-16T04:15:44;100249.59;;;12.99;100.00
22283;BME280;11310;51.528;21.204;2022-10-16T04:18:13;100252.31;;;12.98;100.00
22283;BME280;11310;51.528;21.204;2022-10-16T04:20:42;100247.19;;;12.95;100.00
22283;BME280;11310;51.528;21.204;2022-10-16T04:23:10;100257.78;;;12.93;100.00
22283;BME280;11310;51.528;21.204;2022-10-16T04:25:39;100249.91;;;12.93;100.00
22283;BME280;11310;51.528;21.204;2022-10-16T04:28:10;100254.97;;;12.96;100.00
22283;BME280;11310;51.528;21.204;2022-10-16T04:30:39;100255.88;;;12.97;100.00
22283;BME280;11310;51.528;21.204;2022-10-16T04:33:08;100254.88;;;12.99;100.00
22283;BME280;11310;51.528;21.204;2022-10-16T04:35:37;100253.16;;;12.98;100.00
22283;BME280;11310;51.528;21.204;2022-10-16T04:38:05;100264.38;;;13.02;100.00
22283;BME280;11310;51.528;21.204;2022-10-16T04:40:34;100262.63;;;13.02;100.00
22283;BME280;11310;51.528;21.204;2022-10-16T04:43:04;100266.09;;;13.03;100.00
22283;BME280;11310;51.528;21.204;2022-10-16T04:45:34;100267.81;;;13.04;100.00
22283;BME280;11310;51.528;21.204;2022-10-16T04:48:02;100269.50;;;13.05;100.00
22283;BME280;11310;51.528;21.204;2022-10-16T04:50:31;100263.31;;;13.06;100.00
22283;BME280;11310;51.528;21.204;2022-10-16T04:53:05;100272.91;;;13.07;100.00
22283;BME280;11310;51.528;21.204;2022-10-16T04:55:34;100266.16;;;13.01;100.00
22283;BME280;11310;51.528;21.204;2022-10-16T04:58:03;100268.97;;;12.98;100.00
22283;BME280;11310;51.528;21.204;2022-10-16T05:00:38;100273.66;;;12.92;100.00
22283;BME280;11310;51.528;21.204;2022-10-16T05:03:08;100284.59;;;12.84;100.00
22283;BME280;11310;51.528;21.204;2022-10-16T05:05:46;100276.38;;;12.73;100.00
22283;BME280;11310;51.528;21.204;2022-10-16T05:08:18;100285.47;;;12.68;100.00
22283;BME280;11310;51.528;21.204;2022-10-16T05:10:46;100281.41;;;12.61;100.00
22283;BME280;11310;51.528;21.204;2022-10-16T05:13:20;100281.81;;;12.53;100.00
22283;BME280;11310;51.528;21.204;2022-10-16T05:15:49;100282.13;;;12.47;100.00
22283;BME280;11310;51.528;21.204;2022-10-16T05:18:18;100285.81;;;12.43;100.00
22283;BME280;11310;51.528;21.204;2022-10-16T05:20:47;100284.19;;;12.41;100.00
22283;BME280;11310;51.528;21.204;2022-10-16T05:23:15;100290.47;;;12.38;100.00
22283;BME280;11310;51.528;21.204;2022-10-16T05:25:52;100294.94;;;12.36;100.00
22283;BME280;11310;51.528;21.204;2022-10-16T05:28:21;100291.38;;;12.37;100.00
22283;BME280;11310;51.528;21.204;2022-10-16T05:30:54;100293.09;;;12.38;100.00
22283;BME280;11310;51.528;21.204;2022-10-16T05:33:24;100290.59;;;12.35;100.00
22283;BME280;11310;51.528;21.204;2022-10-16T05:35:53;100302.06;;;12.34;100.00
22283;BME280;11310;51.528;21.204;2022-10-16T05:38:22;100296.94;;;12.31;100.00
22283;BME280;11310;51.528;21.204;2022-10-16T05:40:53;100296.25;;;12.28;100.00
22283;BME280;11310;51.528;21.204;2022-10-16T05:43:23;100305.91;;;12.27;100.00
22283;BME280;11310;51.528;21.204;2022-10-16T05:45:57;100305.06;;;12.27;100.00
22283;BME280;11310;51.528;21.204;2022-10-16T05:48:27;100309.38;;;12.28;100.00
22283;BME280;11310;51.528;21.204;2022-10-16T05:50:57;100318.28;;;12.25;100.00
22283;BME280;11310;51.528;21.204;2022-10-16T05:53:27;100318.16;;;12.28;100.00
22283;BME280;11310;51.528;21.204;2022-10-16T05:55:56;100322.31;;;12.32;100.00
22283;BME280;11310;51.528;21.204;2022-10-16T05:58:28;100313.28;;;12.38;100.00
22283;BME280;11310;51.528;21.204;2022-10-16T06:01:03;100315.53;;;12.45;100.00
22283;BME280;11310;51.528;21.204;2022-10-16T06:03:33;100315.38;;;12.48;100.00
22283;BME280;11310;51.528;21.204;2022-10-16T06:06:07;100320.50;;;12.51;100.00
22283;BME280;11310;51.528;21.204;2022-10-16T06:08:39;100316.09;;;12.52;100.00
22283;BME280;11310;51.528;21.204;2022-10-16T06:11:09;100323.75;;;12.56;100.00
22283;BME280;11310;51.528;21.204;2022-10-16T06:13:39;100334.28;;;12.56;100.00
22283;BME280;11310;51.528;21.204;2022-10-16T06:16:12;100324.84;;;12.52;100.00
22283;BME280;11310;51.528;21.204;2022-10-16T06:18:41;100335.38;;;12.52;100.00
22283;BME280;11310;51.528;21.204;2022-10-16T06:21:11;100329.16;;;12.53;100.00
22283;BME280;11310;51.528;21.204;2022-10-16T06:23:40;100319.25;;;12.58;100.00
22283;BME280;11310;51.528;21.204;2022-10-16T06:26:11;100332.22;;;12.63;100.00
22283;BME280;11310;51.528;21.204;2022-10-16T06:28:40;100331.66;;;12.73;100.00
22283;BME280;11310;51.528;21.204;2022-10-16T06:31:11;100339.09;;;12.82;100.00
22283;BME280;11310;51.528;21.204;2022-10-16T06:33:41;100334.31;;;12.90;100.00
22283;BME280;11310;51.528;21.204;2022-10-16T06:36:11;100340.25;;;12.94;100.00
22283;BME280;11310;51.528;21.204;2022-10-16T06:38:41;100346.19;;;12.99;100.00
22283;BME280;11310;51.528;21.204;2022-10-16T06:41:12;100347.66;;;13.04;100.00
22283;BME280;11310;51.528;21.204;2022-10-16T06:43:44;100352.47;;;13.13;100.00
22283;BME280;11310;51.528;21.204;2022-10-16T06:46:21;100354.16;;;13.31;100.00
22283;BME280;11310;51.528;21.204;2022-10-16T06:48:50;100357.00;;;13.44;100.00
22283;BME280;11310;51.528;21.204;2022-10-16T06:51:23;100366.53;;;13.46;100.00
22283;BME280;11310;51.528;21.204;2022-10-16T06:53:54;100371.91;;;13.60;100.00
22283;BME280;11310;51.528;21.204;2022-10-16T06:56:37;100363.81;;;13.80;100.00
22283;BME280;11310;51.528;21.204;2022-10-16T06:59:05;100368.53;;;13.91;100.00
22283;BME280;11310;51.528;21.204;2022-10-16T07:01:35;100370.75;;;13.98;100.00
22283;BME280;11310;51.528;21.204;2022-10-16T07:04:04;100368.34;;;14.09;100.00
22283;BME280;11310;51.528;21.204;2022-10-16T07:06:33;100381.91;;;14.19;100.00
22283;BME280;11310;51.528;21.204;2022-10-16T07:09:04;100381.94;;;14.34;100.00
22283;BME280;11310;51.528;21.204;2022-10-16T07:11:33;100387.03;;;14.53;100.00
22283;BME280;11310;51.528;21.204;2022-10-16T07:14:02;100381.31;;;14.76;100.00
22283;BME280;11310;51.528;21.204;2022-10-16T07:16:32;100386.88;;;15.01;100.00
22283;BME280;11310;51.528;21.204;2022-10-16T07:19:02;100395.53;;;15.18;100.00
22283;BME280;11310;51.528;21.204;2022-10-16T07:21:33;100397.34;;;15.32;100.00
22283;BME280;11310;51.528;21.204;2022-10-16T07:24:05;100394.28;;;15.39;100.00
22283;BME280;11310;51.528;21.204;2022-10-16T07:26:36;100396.72;;;15.42;100.00
22283;BME280;11310;51.528;21.204;2022-10-16T07:29:07;100388.63;;;15.45;100.00
22283;BME280;11310;51.528;21.204;2022-10-16T07:31:36;100390.81;;;15.53;100.00
22283;BME280;11310;51.528;21.204;2022-10-16T07:34:07;100390.16;;;15.63;100.00
22283;BME280;11310;51.528;21.204;2022-10-16T07:36:35;100391.28;;;15.73;100.00
22283;BME280;11310;51.528;21.204;2022-10-16T07:39:05;100396.28;;;15.78;100.00
22283;BME280;11310;51.528;21.204;2022-10-16T07:41:33;100399.31;;;15.86;100.00
22283;BME280;11310;51.528;21.204;2022-10-16T07:44:04;100399.41;;;15.98;100.00
22283;BME280;11310;51.528;21.204;2022-10-16T07:46:33;100406.59;;;16.10;100.00
22283;BME280;11310;51.528;21.204;2022-10-16T07:49:08;100406.88;;;16.20;100.00
22283;BME280;11310;51.528;21.204;2022-10-16T07:51:39;100409.78;;;16.29;99.65
22283;BME280;11310;51.528;21.204;2022-10-16T07:54:09;100411.94;;;16.37;99.41
22283;BME280;11310;51.528;21.204;2022-10-16T07:56:38;100416.03;;;16.42;99.49
22283;BME280;11310;51.528;21.204;2022-10-16T07:59:10;100413.94;;;16.47;98.73
22283;BME280;11310;51.528;21.204;2022-10-16T08:01:42;100416.88;;;16.57;98.56
22283;BME280;11310;51.528;21.204;2022-10-16T08:04:12;100413.41;;;16.69;96.80
22283;BME280;11310;51.528;21.204;2022-10-16T08:06:43;100426.47;;;16.98;96.08
22283;BME280;11310;51.528;21.204;2022-10-16T08:09:13;100415.00;;;17.63;93.04
22283;BME280;11310;51.528;21.204;2022-10-16T08:11:41;100417.75;;;18.84;87.29
22283;BME280;11310;51.528;21.204;2022-10-16T08:14:10;100422.97;;;20.77;77.97
22283;BME280;11310;51.528;21.204;2022-10-16T08:16:40;100424.59;;;22.44;70.22
22283;BME280;11310;51.528;21.204;2022-10-16T08:19:12;100430.06;;;22.82;66.76
22283;BME280;11310;51.528;21.204;2022-10-16T08:21:42;100432.88;;;22.41;68.30
22283;BME280;11310;51.528;21.204;2022-10-16T08:24:12;100428.22;;;21.83;72.18
22283;BME280;11310;51.528;21.204;2022-10-16T08:26:40;100420.81;;;21.45;73.93
22283;BME280;11310;51.528;21.204;2022-10-16T08:29:09;100423.47;;;21.45;75.73
22283;BME280;11310;51.528;21.204;2022-10-16T08:31:38;100429.44;;;21.38;75.80
22283;BME280;11310;51.528;21.204;2022-10-16T08:34:08;100425.97;;;21.47;75.32
22283;BME280;11310;51.528;21.204;2022-10-16T08:36:41;100430.09;;;21.51;75.75
22283;BME280;11310;51.528;21.204;2022-10-16T08:39:10;100435.84;;;21.67;75.80
22283;BME280;11310;51.528;21.204;2022-10-16T08:42:05;100439.81;;;21.93;70.23
22283;BME280;11310;51.528;21.204;2022-10-16T08:45:01;100434.06;;;22.18;69.43
22283;BME280;11310;51.528;21.204;2022-10-16T08:47:42;100442.94;;;22.48;71.04
22283;BME280;11310;51.528;21.204;2022-10-16T08:50:17;100446.75;;;22.25;72.16
22283;BME280;11310;51.528;21.204;2022-10-16T08:52:54;100443.72;;;21.48;74.14
22283;BME280;11310;51.528;21.204;2022-10-16T08:55:37;100441.25;;;20.81;75.76
22283;BME280;11310;51.528;21.204;2022-10-16T08:58:12;100442.25;;;20.58;80.55
22283;BME280;11310;51.528;21.204;2022-10-16T09:00:42;100433.06;;;20.62;80.12
22283;BME280;11310;51.528;21.204;2022-10-16T09:03:17;100429.50;;;20.95;77.58
22283;BME280;11310;51.528;21.204;2022-10-16T09:05:57;100431.56;;;20.80;77.68
22283;BME280;11310;51.528;21.204;2022-10-16T09:08:40;100438.69;;;20.80;74.61
22283;BME280;11310;51.528;21.204;2022-10-16T09:11:21;100423.56;;;20.80;78.16
22283;BME280;11310;51.528;21.204;2022-10-16T09:13:54;100427.19;;;21.22;77.23
22283;BME280;11310;51.528;21.204;2022-10-16T09:16:30;100430.56;;;21.97;73.51
22283;BME280;11310;51.528;21.204;2022-10-16T09:19:06;100428.31;;;22.62;70.59
22283;BME280;11310;51.528;21.204;2022-10-16T09:21:42;100436.59;;;23.08;67.79
22283;BME280;11310;51.528;21.204;2022-10-16T09:24:23;100431.69;;;23.60;65.38
22283;BME280;11310;51.528;21.204;2022-10-16T09:26:55;100436.22;;;24.52;62.02
22283;BME280;11310;51.528;21.204;2022-10-16T09:29:27;100430.56;;;25.26;59.57
22283;BME280;11310;51.528;21.204;2022-10-16T09:31:57;100437.50;;;25.02;59.57
22283;BME280;11310;51.528;21.204;2022-10-16T09:34:43;100446.28;;;24.77;60.68
22283;BME280;11310;51.528;21.204;2022-10-16T09:37:18;100448.72;;;23.59;64.33
22283;BME280;11310;51.528;21.204;2022-10-16T09:39:51;100454.63;;;23.15;67.04
22283;BME280;11310;51.528;21.204;2022-10-16T09:42:32;100443.69;;;23.37;66.83
22283;BME280;11310;51.528;21.204;2022-10-16T09:45:04;100446.88;;;23.12;67.61
22283;BME280;11310;51.528;21.204;2022-10-16T09:47:37;100454.25;;;23.39;66.86
22283;BME280;11310;51.528;21.204;2022-10-16T09:50:23;100446.44;;;24.02;64.66
22283;BME280;11310;51.528;21.204;2022-10-16T09:53:05;100452.78;;;25.19;59.00
22283;BME280;11310;51.528;21.204;2022-10-16T09:55:36;100446.16;;;26.01;56.91
22283;BME280;11310;51.528;21.204;2022-10-16T09:58:13;100441.75;;;26.59;53.74
22283;BME280;11310;51.528;21.204;2022-10-16T10:00:49;100442.47;;;26.61;53.71
22283;BME280;11310;51.528;21.204;2022-10-16T10:03:35;100439.47;;;26.05;54.80
22283;BME280;11310;51.528;21.204;2022-10-16T10:06:17;100434.06;;;25.27;56.85
22283;BME280;11310;51.528;21.204;2022-10-16T10:08:54;100426.59;;;24.22;62.83
22283;BME280;11310;51.528;21.204;2022-10-16T10:11:43;100431.38;;;23.63;65.02
22283;BME280;11310;51.528;21.204;2022-10-16T10:14:23;100430.94;;;23.87;66.99
22283;BME280;11310;51.528;21.204;2022-10-16T10:17:01;100433.00;;;25.02;61.90
22283;BME280;11310;51.528;21.204;2022-10-16T10:19:38;100432.16;;;26.56;55.79
22283;BME280;11310;51.528;21.204;2022-10-16T10:22:23;100428.16;;;27.74;49.99
22283;BME280;11310;51.528;21.204;2022-10-16T10:25:07;100430.78;;;28.30;47.32
22283;BME280;11310;51.528;21.204;2022-10-16T10:27:54;100426.63;;;28.66;46.58
22283;BME280;11310;51.528;21.204;2022-10-16T10:30:37;100427.88;;;28.86;45.82
22283;BME280;11310;51.528;21.204;2022-10-16T10:33:12;100426.28;;;28.14;45.39
22283;BME280;11310;51.528;21.204;2022-10-16T10:35:45;100428.44;;;28.27;50.00
22283;BME280;11310;51.528;21.204;2022-10-16T10:38:27;100428.03;;;28.54;48.27
22283;BME280;11310;51.528;21.204;2022-10-16T10:41:14;100426.38;;;28.45;46.86
22283;BME280;11310;51.528;21.204;2022-10-16T10:44:03;100434.31;;;28.47;46.39
22283;BME280;11310;51.528;21.204;2022-10-16T10:46:36;100438.22;;;29.13;47.06
22283;BME280;11310;51.528;21.204;2022-10-16T10:49:39;100422.69;;;29.52;43.90
22283;BME280;11310;51.528;21.204;2022-10-16T10:52:34;100415.31;;;30.06;42.47
22283;BME280;11310;51.528;21.204;2022-10-16T10:55:13;100405.38;;;29.98;44.40
22283;BME280;11310;51.528;21.204;2022-10-16T11:00:44;100398.84;;;27.15;49.33
22283;BME280;11310;51.528;21.204;2022-10-16T11:03:31;100391.69;;;25.81;55.37
22283;BME280;11310;51.528;21.204;2022-10-16T11:06:06;100387.69;;;25.60;59.69
22283;BME280;11310;51.528;21.204;2022-10-16T11:08:40;100397.28;;;26.55;56.26
22283;BME280;11310;51.528;21.204;2022-10-16T11:11:18;100390.63;;;27.32;53.25
22283;BME280;11310;51.528;21.204;2022-10-16T11:13:55;100393.94;;;27.74;50.08
22283;BME280;11310;51.528;21.204;2022-10-16T11:16:33;100386.34;;;27.14;52.47
22283;BME280;11310;51.528;21.204;2022-10-16T11:19:11;100383.06;;;26.62;54.49
22283;BME280;11310;51.528;21.204;2022-10-16T11:21:46;100379.75;;;26.92;54.85
22283;BME280;11310;51.528;21.204;2022-10-16T11:24:22;100379.28;;;27.13;53.35
22283;BME280;11310;51.528;21.204;2022-10-16T11:26:54;100379.16;;;27.38;52.42
22283;BME280;11310;51.528;21.204;2022-10-16T11:29:28;100378.63;;;27.67;52.08
22283;BME280;11310;51.528;21.204;2022-10-16T11:32:04;100371.72;;;27.72;51.10
22283;BME280;11310;51.528;21.204;2022-10-16T11:34:37;100382.00;;;27.45;52.60
22283;BME280;11310;51.528;21.204;2022-10-16T11:37:11;100382.53;;;27.40;52.37
22283;BME280;11310;51.528;21.204;2022-10-16T11:39:42;100375.78;;;27.36;52.08
22283;BME280;11310;51.528;21.204;2022-10-16T11:42:16;100373.28;;;27.43;51.08
22283;BME280;11310;51.528;21.204;2022-10-16T11:44:54;100380.34;;;27.52;50.04
22283;BME280;11310;51.528;21.204;2022-10-16T11:47:33;100384.03;;;27.75;50.45
22283;BME280;11310;51.528;21.204;2022-10-16T11:50:28;100383.97;;;26.95;54.51
22283;BME280;11310;51.528;21.204;2022-10-16T11:53:09;100390.69;;;26.08;57.72
22283;BME280;11310;51.528;21.204;2022-10-16T11:55:45;100394.19;;;25.32;60.73
22283;BME280;11310;51.528;21.204;2022-10-16T11:58:21;100391.13;;;24.65;60.74
22283;BME280;11310;51.528;21.204;2022-10-16T12:00:57;100388.81;;;24.16;63.39
22283;BME280;11310;51.528;21.204;2022-10-16T12:03:34;100395.91;;;24.07;63.82
22283;BME280;11310;51.528;21.204;2022-10-16T12:06:18;100397.63;;;23.80;62.96
22283;BME280;11310;51.528;21.204;2022-10-16T12:08:52;100388.28;;;23.47;66.88
22283;BME280;11310;51.528;21.204;2022-10-16T12:11:24;100398.00;;;23.20;63.62
22283;BME280;11310;51.528;21.204;2022-10-16T12:14:19;100401.19;;;22.85;67.98
22283;BME280;11310;51.528;21.204;2022-10-16T12:16:53;100396.81;;;22.65;68.93
22283;BME280;11310;51.528;21.204;2022-10-16T12:19:29;100404.03;;;22.44;70.24
22283;BME280;11310;51.528;21.204;2022-10-16T12:22:02;100403.41;;;22.31;70.16
22283;BME280;11310;51.528;21.204;2022-10-16T12:24:35;100394.66;;;22.59;69.65
22283;BME280;11310;51.528;21.204;2022-10-16T12:27:24;100379.97;;;23.41;66.53
22283;BME280;11310;51.528;21.204;2022-10-16T12:29:56;100387.47;;;24.02;63.49
22283;BME280;11310;51.528;21.204;2022-10-16T12:32:30;100384.19;;;24.35;62.13
22283;BME280;11310;51.528;21.204;2022-10-16T12:35:20;100389.59;;;24.53;63.93
22283;BME280;11310;51.528;21.204;2022-10-16T12:37:50;100383.56;;;24.51;61.80
22283;BME280;11310;51.528;21.204;2022-10-16T12:40:27;100390.34;;;24.45;61.71
22283;BME280;11310;51.528;21.204;2022-10-16T12:42:56;100389.91;;;24.50;61.83
22283;BME280;11310;51.528;21.204;2022-10-16T12:45:30;100371.06;;;25.21;60.21
22283;BME280;11310;51.528;21.204;2022-10-16T12:48:01;100384.50;;;25.90;57.09
22283;BME280;11310;51.528;21.204;2022-10-16T12:50:37;100386.47;;;25.80;55.67
22283;BME280;11310;51.528;21.204;2022-10-16T12:53:18;100383.72;;;25.11;57.58
22283;BME280;11310;51.528;21.204;2022-10-16T12:55:54;100387.78;;;24.53;60.12
22283;BME280;11310;51.528;21.204;2022-10-16T12:58:51;100399.84;;;24.13;61.61
22283;BME280;11310;51.528;21.204;2022-10-16T13:01:33;100393.97;;;23.90;62.99
22283;BME280;11310;51.528;21.204;2022-10-16T13:04:29;100387.97;;;23.69;62.86
22283;BME280;11310;51.528;21.204;2022-10-16T13:07:20;100387.78;;;24.80;57.99